createdAt,value
2023-08-28T00:01:12.977Z,99497.63
2023-08-28T00:03:39.604Z,99507.34
2023-08-28T00:06:06.206Z,99519.00
2023-08-28T00:08:32.729Z,99496.88
2023-08-28T00:10:59.163Z,99487.75
2023-08-28T00:13:25.634Z,99476.28
2023-08-28T00:15:52.383Z,99449.03
2023-08-28T00:18:19.104Z,99417.66
2023-08-28T00:20:46.601Z,99400.22
2023-08-28T00:23:13.146Z,99403.50
2023-08-28T00:25:39.576Z,99402.63
2023-08-28T00:28:06.196Z,99423.53
2023-08-28T00:30:32.682Z,99401.84
2023-08-28T00:32:59.219Z,99370.56
2023-08-28T00:35:25.781Z,99356.50
2023-08-28T00:37:52.251Z,99357.31
2023-08-28T00:40:19.102Z,99389.72
2023-08-28T00:42:45.584Z,99398.63
2023-08-28T00:45:12.123Z,99411.69
2023-08-28T00:47:40.325Z,99404.06
2023-08-28T00:50:07.422Z,99390.13
2023-08-28T00:52:34.150Z,99352.56
2023-08-28T00:55:01.080Z,99308.78
2023-08-28T00:57:27.635Z,99270.50
2023-08-28T00:59:54.142Z,99253.97
2023-08-28T01:02:20.593Z,99245.25
2023-08-28T01:04:47.218Z,99245.34
2023-08-28T01:07:24.319Z,99245.38
2023-08-28T01:10:05.390Z,99230.56
2023-08-28T01:12:43.430Z,99222.75
2023-08-28T01:15:21.709Z,99241.91
2023-08-28T01:17:52.580Z,99241.97
2023-08-28T01:20:20.313Z,99249.06
2023-08-28T01:22:59.143Z,99245.69
2023-08-28T01:25:26.703Z,99248.44
2023-08-28T01:27:53.808Z,99239.72
2023-08-28T01:30:21.549Z,99235.38
2023-08-28T01:32:48.369Z,99241.59
2023-08-28T01:35:18.749Z,99236.44
2023-08-28T01:38:03.985Z,99213.84
2023-08-28T01:40:37.609Z,99215.66
2023-08-28T01:43:09.094Z,99207.91
2023-08-28T01:45:38.785Z,99203.69
2023-08-28T01:48:06.800Z,99195.16
2023-08-28T01:50:34.049Z,99213.78
2023-08-28T01:53:00.821Z,99224.28
2023-08-28T01:55:55.221Z,99215.75
2023-08-28T01:58:21.882Z,99228.88
2023-08-28T02:00:50.753Z,99244.38
2023-08-28T02:03:17.309Z,99245.38
2023-08-28T02:05:43.752Z,99247.94
2023-08-28T02:08:10.225Z,99240.84
2023-08-28T02:10:36.673Z,99236.53
2023-08-28T02:13:03.907Z,99209.44
2023-08-28T02:15:30.578Z,99206.69
2023-08-28T02:17:57.099Z,99204.09
2023-08-28T02:20:23.700Z,99187.53
2023-08-28T02:22:50.154Z,99198.75
2023-08-28T02:25:21.544Z,99190.91
2023-08-28T02:27:48.015Z,99187.41
2023-08-28T02:30:14.463Z,99205.00
2023-08-28T02:32:41.096Z,99201.59
2023-08-28T02:35:07.915Z,99199.03
2023-08-28T02:37:34.583Z,99194.63
2023-08-28T02:40:01.023Z,99204.22
2023-08-28T02:42:27.484Z,99192.97
2023-08-28T02:44:53.905Z,99195.75
2023-08-28T02:47:20.330Z,99182.75
2023-08-28T02:49:48.253Z,99194.13
2023-08-28T02:52:14.746Z,99208.22
2023-08-28T02:54:41.179Z,99204.13
2023-08-28T02:57:07.634Z,99192.19
2023-08-28T02:59:34.100Z,99172.19
2023-08-28T03:02:00.685Z,99169.78
2023-08-28T03:04:27.224Z,99171.56
2023-08-28T03:06:53.678Z,99163.03
2023-08-28T03:09:20.166Z,99140.50
2023-08-28T03:11:46.864Z,99145.69
2023-08-28T03:14:19.956Z,99123.97
2023-08-28T03:16:46.382Z,99124.78
2023-08-28T03:19:12.812Z,99116.03
2023-08-28T03:21:40.702Z,99113.34
2023-08-28T03:24:07.825Z,99115.84
2023-08-28T03:26:34.862Z,99121.97
2023-08-28T03:29:01.678Z,99127.88
2023-08-28T03:31:28.707Z,99118.16
2023-08-28T03:33:55.231Z,99109.38
2023-08-28T03:36:21.758Z,99116.44
2023-08-28T03:38:48.193Z,99108.69
2023-08-28T03:41:14.633Z,99105.25
2023-08-28T03:43:41.166Z,99094.78
2023-08-28T03:46:07.754Z,99081.66
2023-08-28T03:48:34.563Z,99073.78
2023-08-28T03:51:01.211Z,99085.97
2023-08-28T03:53:28.207Z,99083.47
2023-08-28T03:55:54.701Z,99096.53
2023-08-28T03:58:23.160Z,99100.03
2023-08-28T04:00:55.143Z,99096.50
2023-08-28T04:03:21.818Z,99109.53
2023-08-28T04:05:49.741Z,99114.75
2023-08-28T04:08:16.556Z,99109.44
2023-08-28T04:10:43.822Z,99119.84
2023-08-28T04:13:10.325Z,99131.06
2023-08-28T04:15:37.238Z,99141.53
2023-08-28T04:18:03.957Z,99144.09
2023-08-28T04:20:31.444Z,99145.78
2023-08-28T04:22:57.912Z,99137.94
2023-08-28T04:25:24.897Z,99144.88
2023-08-28T04:27:51.378Z,99135.28
2023-08-28T04:30:20.719Z,99131.78
2023-08-28T04:32:47.309Z,99133.53
2023-08-28T04:35:13.957Z,99125.69
2023-08-28T04:37:41.179Z,99122.16
2023-08-28T04:40:08.565Z,99130.94
2023-08-28T04:42:35.015Z,99132.75
2023-08-28T04:45:01.433Z,99124.03
2023-08-28T04:47:28.075Z,99124.91
2023-08-28T04:49:54.804Z,99132.75
2023-08-28T04:52:23.160Z,99140.66
2023-08-28T04:54:49.593Z,99137.16
2023-08-28T04:57:18.981Z,99131.00
2023-08-28T04:59:45.503Z,99128.31
2023-08-28T05:02:12.006Z,99138.72
2023-08-28T05:04:38.456Z,99134.25
2023-08-28T05:07:06.280Z,99127.19
2023-08-28T05:09:32.768Z,99117.56
2023-08-28T05:11:59.214Z,99090.34
2023-08-28T05:14:25.831Z,99101.63
2023-08-28T05:16:52.284Z,99094.66
2023-08-28T05:19:18.727Z,99105.13
2023-08-28T05:21:48.915Z,99115.63
2023-08-28T05:24:18.653Z,99117.34
2023-08-28T05:26:45.101Z,99140.09
2023-08-28T05:29:11.699Z,99149.88
2023-08-28T05:31:38.379Z,99160.56
2023-08-28T05:34:04.940Z,99164.97
2023-08-28T05:36:31.368Z,99163.28
2023-08-28T05:38:57.813Z,99167.63
2023-08-28T05:41:24.318Z,99169.38
2023-08-28T05:43:50.759Z,99167.69
2023-08-28T05:46:17.390Z,99180.75
2023-08-28T05:48:47.373Z,99181.72
2023-08-28T05:51:13.811Z,99176.59
2023-08-28T05:53:42.552Z,99183.56
2023-08-28T05:56:16.806Z,99191.56
2023-08-28T05:58:44.511Z,99193.31
2023-08-28T06:01:11.159Z,99193.34
2023-08-28T06:03:40.777Z,99189.00
2023-08-28T06:06:07.277Z,99184.69
2023-08-28T06:08:33.737Z,99186.44
2023-08-28T06:11:00.183Z,99188.22
2023-08-28T06:13:27.046Z,99179.72
2023-08-28T06:15:57.421Z,99173.69
2023-08-28T06:18:24.401Z,99173.69
2023-08-28T06:20:50.869Z,99179.81
2023-08-28T06:23:18.736Z,99180.28
2023-08-28T06:25:47.565Z,99184.03
2023-08-28T06:28:14.665Z,99183.25
2023-08-28T06:30:41.450Z,99188.59
2023-08-28T06:33:08.135Z,99189.09
2023-08-28T06:35:34.906Z,99191.53
2023-08-28T06:38:01.558Z,99192.50
2023-08-28T06:40:28.079Z,99189.16
2023-08-28T06:42:54.804Z,99177.16
2023-08-28T06:45:21.277Z,99181.59
2023-08-28T06:47:48.235Z,99178.97
2023-08-28T06:50:14.904Z,99183.69
2023-08-28T06:52:41.343Z,99169.06
2023-08-28T06:55:17.060Z,99181.41
2023-08-28T06:57:43.551Z,99174.28
2023-08-28T07:00:12.115Z,99169.81
2023-08-28T07:02:38.839Z,99159.06
2023-08-28T07:05:08.867Z,99156.44
2023-08-28T07:07:35.387Z,99152.28
2023-08-28T07:10:02.336Z,99149.53
2023-08-28T07:12:28.790Z,99156.84
2023-08-28T07:15:28.066Z,99163.81
2023-08-28T07:17:54.733Z,99165.00
2023-08-28T07:20:22.658Z,99157.28
2023-08-28T07:22:49.208Z,99158.06
2023-08-28T07:25:22.758Z,99161.47
2023-08-28T07:27:53.101Z,99164.91
2023-08-28T07:30:19.977Z,99172.09
2023-08-28T07:32:46.720Z,99165.22
2023-08-28T07:35:13.314Z,99167.34
2023-08-28T07:37:39.850Z,99157.16
2023-08-28T07:40:07.600Z,99151.69
2023-08-28T07:42:34.634Z,99153.13
2023-08-28T07:45:01.133Z,99164.47
2023-08-28T07:47:28.281Z,99161.91
2023-08-28T07:49:55.734Z,99164.66
2023-08-28T07:52:25.269Z,99180.19
2023-08-28T07:54:51.784Z,99185.28
2023-08-28T07:57:21.061Z,99184.25
2023-08-28T07:59:47.628Z,99188.06
2023-08-28T08:02:14.398Z,99189.84
2023-08-28T08:04:40.864Z,99189.28
2023-08-28T08:07:07.341Z,99194.63
2023-08-28T08:09:33.778Z,99189.25
2023-08-28T08:12:00.248Z,99202.56
2023-08-28T08:14:26.688Z,99203.53
2023-08-28T08:16:53.135Z,99204.44
2023-08-28T08:19:19.568Z,99215.00
2023-08-28T08:21:46.133Z,99212.78
2023-08-28T08:24:12.625Z,99207.38
2023-08-28T08:26:39.112Z,99202.91
2023-08-28T08:29:05.682Z,99206.38
2023-08-28T08:31:32.453Z,99203.97
2023-08-28T08:33:59.114Z,99197.25
2023-08-28T08:36:25.584Z,99197.44
2023-08-28T08:38:52.056Z,99193.91
2023-08-28T08:41:21.610Z,99193.72
2023-08-28T08:43:48.213Z,99194.41
2023-08-28T08:46:14.994Z,99201.25
2023-08-28T08:48:42.987Z,99208.06
2023-08-28T08:51:09.639Z,99205.28
2023-08-28T08:53:44.129Z,99208.72
2023-08-28T08:56:14.048Z,99213.81
2023-08-28T08:58:41.600Z,99230.50
2023-08-28T09:01:08.931Z,99219.09
2023-08-28T09:03:35.820Z,99226.06
2023-08-28T09:06:06.487Z,99234.44
2023-08-28T09:08:35.646Z,99234.94
2023-08-28T09:11:02.385Z,99231.56
2023-08-28T09:13:28.909Z,99228.03
2023-08-28T09:15:55.403Z,99231.09
2023-08-28T09:18:22.232Z,99243.25
2023-08-28T09:21:13.516Z,99242.22
2023-08-28T09:23:51.873Z,99245.53
2023-08-28T09:26:23.263Z,99239.91
2023-08-28T09:29:00.305Z,99245.88
2023-08-28T09:31:44.085Z,99242.13
2023-08-28T09:34:10.844Z,99238.44
2023-08-28T09:36:44.120Z,99232.19
2023-08-28T09:39:13.337Z,99229.63
2023-08-28T09:41:41.056Z,99230.28
2023-08-28T09:44:07.603Z,99231.88
2023-08-28T09:46:36.471Z,99225.81
2023-08-28T09:49:03.359Z,99224.19
2023-08-28T09:51:44.257Z,99225.91
2023-08-28T09:54:11.599Z,99220.44
2023-08-28T09:56:39.438Z,99209.00
2023-08-28T09:59:08.018Z,99209.25
2023-08-28T10:01:36.334Z,99218.41
2023-08-28T10:04:08.253Z,99212.44
2023-08-28T10:06:36.338Z,99222.81
2023-08-28T10:09:06.829Z,99223.53
2023-08-28T10:11:40.969Z,99213.78
2023-08-28T10:14:08.190Z,99211.16
2023-08-28T10:16:42.378Z,99214.66
2023-08-28T10:19:18.426Z,99226.91
2023-08-28T10:21:47.778Z,99229.56
2023-08-28T10:24:18.248Z,99231.16
2023-08-28T10:26:45.539Z,99224.00
2023-08-28T10:29:12.752Z,99218.59
2023-08-28T10:31:40.691Z,99225.44
2023-08-28T10:34:08.726Z,99217.69
2023-08-28T10:36:55.358Z,99194.13
2023-08-28T10:39:28.485Z,99180.25
2023-08-28T10:41:56.152Z,99163.69
2023-08-28T10:44:23.853Z,99173.16
2023-08-28T10:46:54.951Z,99166.03
2023-08-28T10:49:21.494Z,99162.53
2023-08-28T10:51:48.048Z,99175.41
2023-08-28T10:54:14.506Z,99185.56
2023-08-28T10:56:41.216Z,99193.34
2023-08-28T10:59:24.453Z,99197.75
2023-08-28T11:01:56.077Z,99199.56
2023-08-28T11:04:23.873Z,99199.56
2023-08-28T11:06:50.678Z,99210.94
2023-08-28T11:09:31.684Z,99208.25
2023-08-28T11:12:01.523Z,99209.13
2023-08-28T11:17:08.901Z,99224.38
2023-08-28T11:19:57.052Z,99231.28
2023-08-28T11:22:40.163Z,99225.19
2023-08-28T11:25:12.803Z,99221.25
2023-08-28T11:27:51.252Z,99199.63
2023-08-28T11:30:21.113Z,99194.47
2023-08-28T11:32:53.853Z,99186.97
2023-08-28T11:35:24.745Z,99180.56
2023-08-28T11:37:55.774Z,99174.41
2023-08-28T11:40:24.288Z,99181.34
2023-08-28T11:43:04.685Z,99180.47
2023-08-28T11:45:31.595Z,99182.97
2023-08-28T11:48:07.728Z,99167.16
2023-08-28T11:50:35.266Z,99167.63
2023-08-28T11:53:05.972Z,99171.88
2023-08-28T11:55:35.764Z,99165.13
2023-08-28T11:58:07.218Z,99156.50
2023-08-28T12:00:33.812Z,99155.78
2023-08-28T12:03:02.931Z,99166.75
2023-08-28T12:05:30.148Z,99168.25
2023-08-28T12:07:56.604Z,99178.81
2023-08-28T12:10:23.449Z,99190.03
2023-08-28T12:12:55.337Z,99194.88
2023-08-28T12:15:34.116Z,99206.81
2023-08-28T12:18:02.751Z,99217.16
2023-08-28T12:20:31.739Z,99222.22
2023-08-28T12:22:59.234Z,99221.22
2023-08-28T12:25:33.506Z,99206.25
2023-08-28T12:28:10.700Z,99200.28
2023-08-28T12:30:40.916Z,99203.63
2023-08-28T12:33:08.867Z,99199.22
2023-08-28T12:35:39.729Z,99192.97
2023-08-28T12:38:06.677Z,99180.81
2023-08-28T12:40:37.261Z,99186.63
2023-08-28T12:43:15.084Z,99181.47
2023-08-28T12:45:43.238Z,99183.41
2023-08-28T12:48:09.812Z,99180.66
2023-08-28T12:50:36.934Z,99174.91
2023-08-28T12:53:05.879Z,99159.22
2023-08-28T12:55:32.745Z,99146.50
2023-08-28T12:57:59.170Z,99143.31
2023-08-28T13:00:26.292Z,99143.06
2023-08-28T13:02:52.952Z,99138.38
2023-08-28T13:05:19.660Z,99144.91
2023-08-28T13:07:46.111Z,99129.59
2023-08-28T13:10:13.277Z,99121.81
2023-08-28T13:12:39.751Z,99116.34
2023-08-28T13:15:06.696Z,99113.44
2023-08-28T13:17:33.218Z,99113.75
2023-08-28T13:19:59.737Z,99103.16
2023-08-28T13:22:26.187Z,99107.00
2023-08-28T13:24:52.647Z,99121.97
2023-08-28T13:27:19.134Z,99115.72
2023-08-28T13:29:45.629Z,99118.03
2023-08-28T13:32:12.114Z,99123.97
2023-08-28T13:34:38.621Z,99120.97
2023-08-28T13:37:06.825Z,99121.44
2023-08-28T13:39:33.836Z,99118.13
2023-08-28T13:42:00.458Z,99132.88
2023-08-28T13:44:28.414Z,99128.19
2023-08-28T13:46:57.051Z,99128.38
2023-08-28T13:49:23.572Z,99126.91
2023-08-28T13:51:52.705Z,99114.38
2023-08-28T13:54:19.678Z,99107.03
2023-08-28T13:56:46.705Z,99107.91
2023-08-28T13:59:13.152Z,99112.53
2023-08-28T14:01:41.904Z,99132.72
2023-08-28T14:04:08.530Z,99148.25
2023-08-28T14:06:36.232Z,99168.44
2023-08-28T14:09:03.943Z,99163.00
2023-08-28T14:11:30.408Z,99167.06
2023-08-28T14:13:56.896Z,99165.88
2023-08-28T14:16:23.341Z,99171.59
2023-08-28T14:18:49.816Z,99169.25
2023-08-28T14:21:16.261Z,99169.97
2023-08-28T14:23:43.776Z,99162.44
2023-08-28T14:26:10.270Z,99166.81
2023-08-28T14:28:36.785Z,99157.19
2023-08-28T14:31:04.004Z,99164.13
2023-08-28T14:33:30.515Z,99162.53
2023-08-28T14:35:57.070Z,99155.41
2023-08-28T14:38:23.572Z,99154.34
2023-08-28T14:40:52.307Z,99153.91
2023-08-28T14:43:19.860Z,99152.31
2023-08-28T14:45:46.364Z,99153.09
2023-08-28T14:48:13.945Z,99150.75
2023-08-28T14:50:40.670Z,99159.56
2023-08-28T14:53:07.403Z,99155.38
2023-08-28T14:55:34.224Z,99152.38
2023-08-28T14:58:03.593Z,99152.16
2023-08-28T15:00:30.019Z,99143.44
2023-08-28T15:02:57.099Z,99141.75
2023-08-28T15:05:24.151Z,99143.88
2023-08-28T15:07:53.117Z,99149.16
2023-08-28T15:10:24.071Z,99157.47
2023-08-28T15:12:50.520Z,99153.03
2023-08-28T15:15:17.113Z,99150.59
2023-08-28T15:17:43.608Z,99154.44
2023-08-28T15:20:10.359Z,99151.06
2023-08-28T15:22:38.214Z,99151.94
2023-08-28T15:25:05.398Z,99151.13
2023-08-28T15:27:31.895Z,99149.00
2023-08-28T15:29:58.610Z,99157.63
2023-08-28T15:32:25.868Z,99158.09
2023-08-28T15:34:53.071Z,99161.53
2023-08-28T15:37:19.552Z,99159.88
2023-08-28T15:39:46.045Z,99158.19
2023-08-28T15:42:12.525Z,99167.69
2023-08-28T15:44:39.035Z,99172.28
2023-08-28T15:47:05.814Z,99179.16
2023-08-28T15:49:32.263Z,99171.00
2023-08-28T15:51:58.742Z,99172.09
2023-08-28T15:54:25.204Z,99177.25
2023-08-28T15:56:51.640Z,99183.28
2023-08-28T15:59:18.364Z,99179.69
2023-08-28T16:01:47.928Z,99178.44
2023-08-28T16:04:14.470Z,99173.63
2023-08-28T16:06:40.973Z,99173.03
2023-08-28T16:09:07.507Z,99183.56
2023-08-28T16:11:34.434Z,99178.19
2023-08-28T16:14:01.754Z,99189.47
2023-08-28T16:16:28.959Z,99191.09
2023-08-28T16:18:55.650Z,99193.69
2023-08-28T16:21:22.125Z,99190.72
2023-08-28T16:23:48.671Z,99191.53
2023-08-28T16:26:15.144Z,99195.53
2023-08-28T16:28:41.629Z,99194.38
2023-08-28T16:31:10.662Z,99192.47
2023-08-28T16:33:37.527Z,99191.50
2023-08-28T16:36:04.353Z,99188.78
2023-08-28T16:38:30.838Z,99178.97
2023-08-28T16:40:57.325Z,99166.13
2023-08-28T16:43:23.765Z,99166.88
2023-08-28T16:45:50.300Z,99158.06
2023-08-28T16:48:16.851Z,99158.06
2023-08-28T16:50:46.040Z,99148.09
2023-08-28T16:53:13.593Z,99153.88
2023-08-28T16:55:42.317Z,99149.81
2023-08-28T16:58:09.146Z,99165.38
2023-08-28T17:00:36.221Z,99174.63
2023-08-28T17:03:04.019Z,99169.53
2023-08-28T17:05:32.052Z,99168.91
2023-08-28T17:07:59.770Z,99172.53
2023-08-28T17:10:30.339Z,99179.53
2023-08-28T17:12:57.913Z,99177.34
2023-08-28T17:15:24.537Z,99179.16
2023-08-28T17:17:51.322Z,99179.19
2023-08-28T17:20:18.144Z,99187.31
2023-08-28T17:22:44.621Z,99196.16
2023-08-28T17:25:17.006Z,99196.28
2023-08-28T17:27:43.528Z,99196.16
2023-08-28T17:30:10.434Z,99193.44
2023-08-28T17:32:40.185Z,99187.91
2023-08-28T17:35:09.979Z,99188.66
2023-08-28T17:37:36.799Z,99191.78
2023-08-28T17:40:05.428Z,99180.47
2023-08-28T17:42:32.069Z,99182.22
2023-08-28T17:44:58.550Z,99190.09
2023-08-28T17:47:25.062Z,99181.28
2023-08-28T17:49:55.016Z,99183.78
2023-08-28T17:52:27.896Z,99183.56
2023-08-28T17:55:01.137Z,99193.00
2023-08-28T17:57:36.827Z,99207.66
2023-08-28T18:00:04.885Z,99212.88
2023-08-28T18:02:48.136Z,99211.06
2023-08-28T18:05:18.512Z,99210.91
2023-08-28T18:07:45.040Z,99203.88
2023-08-28T18:10:11.497Z,99206.72
2023-08-28T18:12:38.740Z,99205.56
2023-08-28T18:15:05.611Z,99209.09
2023-08-28T18:17:32.190Z,99212.94
2023-08-28T18:20:13.169Z,99217.06
2023-08-28T18:22:40.001Z,99212.56
2023-08-28T18:25:06.920Z,99206.34
2023-08-28T18:27:33.355Z,99204.53
2023-08-28T18:29:59.865Z,99204.44
2023-08-28T18:32:26.301Z,99206.25
2023-08-28T18:34:52.796Z,99200.28
2023-08-28T18:37:19.770Z,99198.81
2023-08-28T18:39:46.349Z,99195.94
2023-08-28T18:42:12.820Z,99189.22
2023-08-28T18:44:39.316Z,99187.56
2023-08-28T18:47:06.162Z,99184.72
2023-08-28T18:49:32.584Z,99187.66
2023-08-28T18:51:59.076Z,99190.13
2023-08-28T18:54:25.685Z,99192.69
2023-08-28T18:56:52.142Z,99206.50
2023-08-28T18:59:18.628Z,99205.94
2023-08-28T19:01:45.115Z,99210.41
2023-08-28T19:04:11.606Z,99206.84
2023-08-28T19:06:38.101Z,99205.84
2023-08-28T19:09:05.745Z,99208.28
2023-08-28T19:11:32.406Z,99216.94
2023-08-28T19:13:58.910Z,99229.88
2023-08-28T19:16:25.485Z,99231.88
2023-08-28T19:18:51.922Z,99227.88
2023-08-28T19:21:18.486Z,99223.47
2023-08-28T19:23:44.985Z,99233.88
2023-08-28T19:26:11.512Z,99246.19
2023-08-28T19:28:37.976Z,99248.31
2023-08-28T19:31:05.896Z,99246.72
2023-08-28T19:33:32.359Z,99246.81
2023-08-28T19:35:58.819Z,99249.22
2023-08-28T19:38:25.370Z,99252.50
2023-08-28T19:40:51.837Z,99258.28
2023-08-28T19:43:18.922Z,99247.53
2023-08-28T19:45:45.552Z,99257.53
2023-08-28T19:48:12.135Z,99253.81
2023-08-28T19:50:38.706Z,99251.84
2023-08-28T19:53:07.810Z,99254.63
2023-08-28T19:55:35.604Z,99252.97
2023-08-28T19:58:02.917Z,99250.34
2023-08-28T20:00:30.150Z,99253.91
2023-08-28T20:02:56.809Z,99252.78
2023-08-28T20:05:23.327Z,99243.31
2023-08-28T20:07:49.788Z,99244.78
2023-08-28T20:10:16.363Z,99246.59
2023-08-28T20:12:42.907Z,99249.25
2023-08-28T20:15:09.567Z,99241.56
2023-08-28T20:17:36.155Z,99242.38
2023-08-28T20:20:05.873Z,99252.78
2023-08-28T20:22:32.319Z,99256.88
2023-08-28T20:24:58.818Z,99256.50
2023-08-28T20:27:25.276Z,99257.81
2023-08-28T20:29:51.805Z,99258.72
2023-08-28T20:32:18.308Z,99252.13
2023-08-28T20:34:44.850Z,99252.72
2023-08-28T20:37:11.307Z,99246.31
2023-08-28T20:39:38.151Z,99257.22
2023-08-28T20:42:05.388Z,99254.44
2023-08-28T20:44:33.491Z,99245.50
2023-08-28T20:47:00.091Z,99245.50
2023-08-28T20:49:26.572Z,99241.41
2023-08-28T20:51:54.220Z,99245.25
2023-08-28T20:54:21.082Z,99250.47
2023-08-28T20:56:47.817Z,99261.41
2023-08-28T20:59:16.190Z,99267.66
2023-08-28T21:01:42.812Z,99264.09
2023-08-28T21:04:09.255Z,99258.78
2023-08-28T21:06:36.270Z,99257.88
2023-08-28T21:09:02.817Z,99253.44
2023-08-28T21:11:29.453Z,99271.53
2023-08-28T21:13:55.928Z,99282.03
2023-08-28T21:16:22.412Z,99278.00
2023-08-28T21:18:48.896Z,99271.44
2023-08-28T21:21:15.401Z,99277.19
2023-08-28T21:23:41.883Z,99283.84
2023-08-28T21:26:08.317Z,99273.91
2023-08-28T21:28:35.901Z,99281.88
2023-08-28T21:31:04.484Z,99293.91
2023-08-28T21:33:32.886Z,99285.16
2023-08-28T21:36:00.637Z,99286.91
2023-08-28T21:38:27.461Z,99293.03
2023-08-28T21:40:55.286Z,99303.63
2023-08-28T21:43:22.331Z,99309.75
2023-08-28T21:46:03.492Z,99308.72
2023-08-28T21:48:32.110Z,99304.47
2023-08-28T21:50:58.785Z,99301.00
2023-08-28T21:53:25.239Z,99297.28
2023-08-28T21:55:54.651Z,99296.47
2023-08-28T21:58:22.239Z,99289.13
2023-08-28T22:00:49.375Z,99296.59
2023-08-28T22:03:15.972Z,99299.19
2023-08-28T22:05:46.510Z,99297.78
2023-08-28T22:08:13.988Z,99295.25
2023-08-28T22:10:42.676Z,99291.16
2023-08-28T22:13:09.922Z,99287.56
2023-08-28T22:15:41.388Z,99292.94
2023-08-28T22:18:12.600Z,99296.06
2023-08-28T22:20:45.098Z,99287.16
2023-08-28T22:23:14.883Z,99288.94
2023-08-28T22:25:42.440Z,99290.25
2023-08-28T22:28:08.955Z,99279.69
2023-08-28T22:30:35.896Z,99281.34
2023-08-28T22:33:02.645Z,99277.63
2023-08-28T22:35:29.482Z,99277.00
2023-08-28T22:37:55.938Z,99287.34
2023-08-28T22:40:22.700Z,99294.72
2023-08-28T22:42:49.719Z,99294.91
2023-08-28T22:45:17.418Z,99287.66
2023-08-28T22:47:44.172Z,99280.19
2023-08-28T22:50:10.690Z,99289.06
2023-08-28T22:52:37.177Z,99288.38
2023-08-28T22:55:04.664Z,99298.03
2023-08-28T22:57:31.207Z,99300.41
2023-08-28T22:59:57.746Z,99302.25
2023-08-28T23:02:24.259Z,99312.56
2023-08-28T23:04:52.479Z,99340.97
2023-08-28T23:07:19.662Z,99358.00
2023-08-28T23:09:46.142Z,99361.28
2023-08-28T23:12:12.819Z,99333.31
2023-08-28T23:14:39.296Z,99325.19
2023-08-28T23:17:05.848Z,99324.75
2023-08-28T23:19:32.941Z,99302.75
2023-08-28T23:21:59.430Z,99298.91
2023-08-28T23:24:26.149Z,99289.69
2023-08-28T23:26:52.704Z,99288.59
2023-08-28T23:29:19.871Z,99288.72
2023-08-28T23:31:49.153Z,99292.94
2023-08-28T23:34:16.676Z,99296.13
2023-08-28T23:36:45.164Z,99305.66
2023-08-28T23:39:12.443Z,99302.97
2023-08-28T23:41:38.976Z,99294.47
2023-08-28T23:44:05.718Z,99291.88
2023-08-28T23:46:32.161Z,99291.88
2023-08-28T23:48:58.652Z,99296.59
2023-08-28T23:51:25.130Z,99283.41
2023-08-28T23:53:51.598Z,99284.19
2023-08-28T23:56:18.027Z,99276.31
2023-08-28T23:58:44.489Z,99282.06
